Airfield :
LOGIN :

Register | Disclaimer

   EN    FR    IT 

 










Legend :    VFR   Marginal VFR   IFR   Intensive IFR   Very Intensive IFR
Visi :
Ceiling :
>= 8 km
>= 3000ft
5 to 8 km
1000 to 3000 ft
1500m to 5 km
500 to 1000 ft
800 to 1500m
200 to 500 ft
< 800m
< 200 ft
Symbols :   Thunderstorms  Fog  Heavy snow  Heavy precipitations  Wind > 20 kt
SIGMETs :     Misc.  Thunderstorms  Icing  Turbulence  Mountain Waves  Volcanic Ashes






- Airport Elevation : 1367 ft
- IATA code : FDH


EDNY - Friedrichshafen

CURRENT METAR :
  • 010650Z VRB02KT 9999 -RA FEW011 SCT031 14/12 Q1011

EXPIRED METARs :
  • 010620Z VRB02KT 6000 -RA FEW011 SCT030 OVC035 14/13 Q1011
  • 010550Z 33003KT 300V360 5000 -RA FEW006 BKN035 OVC054 14/13 Q1011
  • 010520Z VRB01KT 9999 -RA FEW006 SCT014 OVC035 14/14 Q1011
  • 010450Z 00000KT 9999 -RA BKN039 14/14 Q1011
  • 010420Z VRB02KT 9999 -RA FEW009 SCT018 14/13 Q1011

TAF TAF EDNY
Valid from the 01 at 06:00 until the 02 at 06:00 UTC


010500Z 0106/0206 VRB02KT 9999 BKN035
BECMG 0106/0108 23005KT
TEMPO 0106/0110 4000 RA BKN008
PROB40
TEMPO 0110/0124 SHRA BKN008 BKN030CB
BECMG 0120/0122 VRB03KT



MET'MAP, your aeronautical weather chart ! - Copyright ORBIFLY December 2007 - Disclaimer

ORBIFLY MET'MAP TEAM :

Programming & Development : Alexandra Zaïnal
Concept & original design : Baudouin d'Aumeries
Assistance for programming : Marc-Olivier Méhu
Technical & hardware support : Manuel Goepfert

Contact : metmap@orbifly.com




SOURCES & CREDITS :

   NOAA